Flight Track Log - Related Links

Times and Time Zones

All times are in EDT time to prevent confusion due to time zone crossing. See the SKW5631 flight status page for this flight to view local times or setup timezone preferences in your user account.

Time Position Orientation Groundspeed Altitude Reporting Facility
EDT Latitude Longitude Course Direction KTS MPH feet Rate Location/Type
Sun 10:36:29 PM 37.6514 -122.3644 153° Southeast 133 153 1,500  Level Oakland Center
Sun 10:37:30 PM 37.7122 -122.3761 351° North 197 227 4,500 3,000 Climbing Oakland Center
Sun 10:38:31 PM 37.6875 -122.4383 243° Southwest 229 264 7,600 2,439 Climbing Oakland Center
Sun 10:39:00 PM 37.1933 -121.8464 135° Southeast  Level Estimated
Sun 10:39:33 PM 37.6156 -122.4703 199° South 271 312 9,500  Level Oakland Center
Sun 10:40:00 PM 37.0865 -121.7151 138° Southeast  Level Estimated
Sun 10:40:34 PM 37.5322 -122.4558 172° South 315 362 12,000  Level Oakland Center
Sun 10:41:00 PM 36.9532 -121.6303 153° Southeast  Level FlightAware Approximate
Sun 10:41:35 PM 37.4514 -122.4006 151° Southeast 331 381 13,700  Level Oakland Center
Sun 10:42:36 PM 37.3806 -122.3167 137° Southeast 350 403 15,600 1,721 Climbing Oakland Center
Sun 10:43:37 PM 37.3047 -122.2353 140° Southeast 358 412 17,200 1,317 Climbing Oakland Center
Sun 10:44:39 PM 37.2278 -122.1472 138° Southeast 372 428 18,300 829 Climbing Oakland Center
Sun 10:45:40 PM 37.1450 -122.0567 139° Southeast 393 452 18,900 590 Climbing Oakland Center
Sun 10:46:41 PM 37.0569 -121.9594 139° Southeast 419 482 19,500 639 Climbing Oakland Center
Sun 10:47:42 PM 36.9486 -121.8389 138° Southeast 434 499 20,200 787 Climbing Oakland Center
Sun 10:48:43 PM 36.8533 -121.7378 140° Southeast 447 514 21,100 934 Climbing Oakland Center
Sun 10:49:44 PM 36.7631 -121.6442 140° Southeast 444 511 22,100 984 Climbing Oakland Center
Sun 10:50:45 PM 36.6589 -121.5633 148° Southeast 441 507 23,100 984 Climbing Oakland Center
Sun 10:51:46 PM 36.5539 -121.4836 149° Southeast 442 509 24,100 976 Climbing Oakland Center
Sun 10:52:48 PM 36.4581 -121.3883 141° Southeast 442 509 25,100 976 Climbing Oakland Center
Sun 10:53:49 PM 36.3694 -121.2822 136° Southeast 442 509 26,100 934 Climbing Oakland Center
Sun 10:54:50 PM 36.2797 -121.1794 137° Southeast 441 507 27,000 443 Climbing Oakland Center
Sun 10:55:51 PM 36.1664 -121.0533 138° Southeast 459 528 27,000  Level Oakland Center
Sun 10:56:52 PM 36.0689 -120.9444 138° Southeast 470 541 27,000  Level Oakland Center
Sun 10:57:53 PM 35.9719 -120.8339 137° Southeast 474 545 27,000  Level Oakland Center
Sun 10:58:54 PM 35.8739 -120.7253 138° Southeast 474 545 27,000  Level Oakland Center
Sun 10:59:55 PM 35.7778 -120.6175 138° Southeast 470 541 27,000  Level Oakland Center
Sun 11:00:56 PM 35.6822 -120.5114 138° Southeast 465 535 27,000  Level Oakland Center
Sun 11:01:58 PM 35.5861 -120.4053 138° Southeast 462 532 27,000  Level Oakland Center
Sun 11:02:58 PM 35.4908 -120.2978 137° Southeast 458 527 27,000  Level Oakland Center
Sun 11:04:00 PM 35.3914 -120.1919 139° Southeast 461 531 27,000  Level Oakland Center
Sun 11:05:01 PM 35.2942 -120.0839 138° Southeast 457 526 27,000  Level Oakland Center
Sun 11:06:02 PM 35.1978 -119.9794 138° Southeast 459 528 27,000 -197 Level Oakland Center
Sun 11:07:03 PM 35.1033 -119.8769 138° Southeast 455 524 26,600 -1,279 Descending Oakland Center
Sun 11:08:04 PM 35.0169 -119.7608 132° Southeast 461 531 24,400 -2,115 Descending Oakland Center
Sun 11:09:05 PM 34.9342 -119.6503 132° Southeast 447 514 22,300 -2,115 Descending Oakland Center
Sun 11:10:06 PM 34.8567 -119.5469 132° Southeast 429 494 20,100 -2,311 Descending Oakland Center
Sun 11:11:07 PM 34.7817 -119.4475 133° Southeast 413 475 17,600 -2,656 Descending Oakland Center
Sun 11:12:08 PM 34.6961 -119.3317 132° Southeast 396 456 14,700 -2,361 Descending Oakland Center
Sun 11:13:09 PM 34.6281 -119.2400 132° Southeast 380 437 12,800 -1,609 Descending Oakland Center
Sun 11:14:26 PM 34.5494 -119.1403 134° Southeast 357 411 11,000 -783 Descending Los Angeles Center
Sun 11:15:27 PM 34.4900 -119.0564 131° Southeast 324 373 11,000 -146 Level Los Angeles Center
Sun 11:16:29 PM 34.4297 -118.9767 132° Southeast 319 367 10,700 -1,016 Descending Los Angeles Center
Sun 11:17:31 PM 34.3653 -118.8811 129° Southeast 303 349 8,900 -1,512 Descending Los Angeles Center
Sun 11:18:32 PM 34.3269 -118.8167 126° Southeast 297 342 7,600 -1,415 Descending Los Angeles Center
Sun 11:19:34 PM 34.2811 -118.7447 128° Southeast 273 314 6,000 -1,403 Descending Los Angeles Center
Sun 11:20:36 PM 34.2311 -118.6606 126° Southeast 260 299 4,700 -968 Descending Los Angeles Center
Sun 11:21:38 PM 34.2017 -118.5944 118° Southeast 230 265 4,000 -435 Descending Los Angeles Center
Sun 11:22:40 PM 34.2003 -118.5283 91° East 202 232 3,800 -677 Descending Los Angeles Center
Sun 11:23:42 PM 34.1992 -118.4714 91° East 183 211 2,600 -1,122 Descending Los Angeles Center
Sun 11:24:43 PM 34.2000 -118.4167 89° East 154 177 1,500 -1,082 Descending Southern California TRACON

Login

Don't have an account? Register now (free) for customized features, flight alerts, and more!